sensor_id;sensor_type;location;lat;lon;timestamp;temperature;humidity
65989;HTU21D;53592;51.402;6.054;2023-09-19T00:01:33;16.81;75.89
65989;HTU21D;53592;51.402;6.054;2023-09-19T00:03:58;16.87;75.72
65989;HTU21D;53592;51.402;6.054;2023-09-19T00:06:25;16.82;75.95
65989;HTU21D;53592;51.402;6.054;2023-09-19T00:08:52;16.80;76.09
65989;HTU21D;53592;51.402;6.054;2023-09-19T00:11:17;16.78;76.12
65989;HTU21D;53592;51.402;6.054;2023-09-19T00:13:43;16.76;76.16
65989;HTU21D;53592;51.402;6.054;2023-09-19T00:16:10;16.71;76.34
65989;HTU21D;53592;51.402;6.054;2023-09-19T00:18:39;16.66;76.65
65989;HTU21D;53592;51.402;6.054;2023-09-19T00:21:07;16.67;76.72
65989;HTU21D;53592;51.402;6.054;2023-09-19T00:23:33;16.72;76.55
65989;HTU21D;53592;51.402;6.054;2023-09-19T00:26:01;16.66;76.77
65989;HTU21D;53592;51.402;6.054;2023-09-19T00:28:27;16.67;76.69
65989;HTU21D;53592;51.402;6.054;2023-09-19T00:30:53;16.67;76.85
65989;HTU21D;53592;51.402;6.054;2023-09-19T00:33:21;16.70;76.60
65989;HTU21D;53592;51.402;6.054;2023-09-19T00:35:54;16.64;76.85
65989;HTU21D;53592;51.402;6.054;2023-09-19T00:38:21;16.64;76.86
65989;HTU21D;53592;51.402;6.054;2023-09-19T00:40:49;16.65;76.89
65989;HTU21D;53592;51.402;6.054;2023-09-19T00:43:16;16.59;77.05
65989;HTU21D;53592;51.402;6.054;2023-09-19T00:45:45;16.58;77.01
65989;HTU21D;53592;51.402;6.054;2023-09-19T00:48:11;16.60;77.08
65989;HTU21D;53592;51.402;6.054;2023-09-19T00:50:38;16.56;77.10
65989;HTU21D;53592;51.402;6.054;2023-09-19T00:53:07;16.59;77.19
65989;HTU21D;53592;51.402;6.054;2023-09-19T00:55:36;16.63;76.84
65989;HTU21D;53592;51.402;6.054;2023-09-19T00:58:07;16.62;76.74
65989;HTU21D;53592;51.402;6.054;2023-09-19T01:00:33;16.59;76.76
65989;HTU21D;53592;51.402;6.054;2023-09-19T01:03:02;16.58;76.67
65989;HTU21D;53592;51.402;6.054;2023-09-19T01:05:29;16.58;76.62
65989;HTU21D;53592;51.402;6.054;2023-09-19T01:07:55;16.52;76.63
65989;HTU21D;53592;51.402;6.054;2023-09-19T01:10:21;16.52;76.46
65989;HTU21D;53592;51.402;6.054;2023-09-19T01:21:42;16.34;76.73
65989;HTU21D;53592;51.402;6.054;2023-09-19T01:29:46;16.31;76.51
65989;HTU21D;53592;51.402;6.054;2023-09-19T01:32:19;16.32;76.50
65989;HTU21D;53592;51.402;6.054;2023-09-19T01:34:57;16.29;76.18
65989;HTU21D;53592;51.402;6.054;2023-09-19T01:37:25;16.25;76.30
65989;HTU21D;53592;51.402;6.054;2023-09-19T01:39:57;16.25;76.21
65989;HTU21D;53592;51.402;6.054;2023-09-19T01:43:08;16.20;76.38
65989;HTU21D;53592;51.402;6.054;2023-09-19T01:45:59;16.24;76.03
65989;HTU21D;53592;51.402;6.054;2023-09-19T01:51:33;16.17;76.09
65989;HTU21D;53592;51.402;6.054;2023-09-19T01:54:12;16.17;75.87
65989;HTU21D;53592;51.402;6.054;2023-09-19T01:56:50;16.05;76.38
65989;HTU21D;53592;51.402;6.054;2023-09-19T01:59:23;16.02;76.65
65989;HTU21D;53592;51.402;6.054;2023-09-19T02:01:52;16.02;76.57
65989;HTU21D;53592;51.402;6.054;2023-09-19T02:04:18;16.07;76.29
65989;HTU21D;53592;51.402;6.054;2023-09-19T02:06:44;16.05;76.44
65989;HTU21D;53592;51.402;6.054;2023-09-19T02:09:14;16.02;76.29
65989;HTU21D;53592;51.402;6.054;2023-09-19T02:11:40;16.00;76.41
65989;HTU21D;53592;51.402;6.054;2023-09-19T02:14:06;16.02;76.08
65989;HTU21D;53592;51.402;6.054;2023-09-19T02:16:34;16.04;76.01
65989;HTU21D;53592;51.402;6.054;2023-09-19T02:19:00;16.06;75.41
65989;HTU21D;53592;51.402;6.054;2023-09-19T02:21:26;16.02;75.34
65989;HTU21D;53592;51.402;6.054;2023-09-19T02:23:55;15.99;75.36
65989;HTU21D;53592;51.402;6.054;2023-09-19T02:26:21;15.97;75.41
65989;HTU21D;53592;51.402;6.054;2023-09-19T02:28:50;16.00;74.92
65989;HTU21D;53592;51.402;6.054;2023-09-19T02:31:16;15.91;75.34
65989;HTU21D;53592;51.402;6.054;2023-09-19T02:33:42;15.93;75.06
65989;HTU21D;53592;51.402;6.054;2023-09-19T02:36:08;15.92;74.75
65989;HTU21D;53592;51.402;6.054;2023-09-19T02:38:34;15.88;74.64
65989;HTU21D;53592;51.402;6.054;2023-09-19T02:41:00;15.90;74.60
65989;HTU21D;53592;51.402;6.054;2023-09-19T02:43:28;15.85;74.37
65989;HTU21D;53592;51.402;6.054;2023-09-19T02:45:53;15.85;74.28
65989;HTU21D;53592;51.402;6.054;2023-09-19T02:48:22;15.83;74.21
65989;HTU21D;53592;51.402;6.054;2023-09-19T02:50:51;15.84;74.06
65989;HTU21D;53592;51.402;6.054;2023-09-19T02:53:17;15.83;74.04
65989;HTU21D;53592;51.402;6.054;2023-09-19T02:55:44;15.81;73.83
65989;HTU21D;53592;51.402;6.054;2023-09-19T02:58:09;15.83;73.59
65989;HTU21D;53592;51.402;6.054;2023-09-19T03:00:37;15.78;73.63
65989;HTU21D;53592;51.402;6.054;2023-09-19T03:03:03;15.74;73.48
65989;HTU21D;53592;51.402;6.054;2023-09-19T03:05:29;15.72;73.45
65989;HTU21D;53592;51.402;6.054;2023-09-19T03:07:58;15.67;73.64
65989;HTU21D;53592;51.402;6.054;2023-09-19T03:10:27;15.67;73.50
65989;HTU21D;53592;51.402;6.054;2023-09-19T03:12:53;15.66;73.57
65989;HTU21D;53592;51.402;6.054;2023-09-19T03:15:18;15.65;73.49
65989;HTU21D;53592;51.402;6.054;2023-09-19T03:17:45;15.59;73.61
65989;HTU21D;53592;51.402;6.054;2023-09-19T03:20:12;15.59;73.67
65989;HTU21D;53592;51.402;6.054;2023-09-19T03:22:39;15.58;73.57
65989;HTU21D;53592;51.402;6.054;2023-09-19T03:25:06;15.56;73.89
65989;HTU21D;53592;51.402;6.054;2023-09-19T03:27:36;15.56;73.64
65989;HTU21D;53592;51.402;6.054;2023-09-19T03:30:02;15.49;73.97
65989;HTU21D;53592;51.402;6.054;2023-09-19T03:32:32;15.46;74.09
65989;HTU21D;53592;51.402;6.054;2023-09-19T03:35:00;15.45;74.30
65989;HTU21D;53592;51.402;6.054;2023-09-19T03:37:25;15.51;74.22
65989;HTU21D;53592;51.402;6.054;2023-09-19T03:39:51;15.44;74.18
65989;HTU21D;53592;51.402;6.054;2023-09-19T03:42:17;15.43;74.39
65989;HTU21D;53592;51.402;6.054;2023-09-19T03:44:42;15.47;74.37
65989;HTU21D;53592;51.402;6.054;2023-09-19T03:47:08;15.52;74.15
65989;HTU21D;53592;51.402;6.054;2023-09-19T03:49:33;15.46;74.70
65989;HTU21D;53592;51.402;6.054;2023-09-19T03:51:59;15.49;74.95
65989;HTU21D;53592;51.402;6.054;2023-09-19T03:54:24;15.43;75.47
65989;HTU21D;53592;51.402;6.054;2023-09-19T03:56:50;15.45;75.60
65989;HTU21D;53592;51.402;6.054;2023-09-19T03:59:15;15.51;75.78
65989;HTU21D;53592;51.402;6.054;2023-09-19T04:01:41;15.48;76.17
65989;HTU21D;53592;51.402;6.054;2023-09-19T04:04:09;15.51;76.18
65989;HTU21D;53592;51.402;6.054;2023-09-19T04:06:34;15.49;76.47
65989;HTU21D;53592;51.402;6.054;2023-09-19T04:09:04;15.49;76.65
65989;HTU21D;53592;51.402;6.054;2023-09-19T04:11:32;15.47;76.94
65989;HTU21D;53592;51.402;6.054;2023-09-19T04:13:58;15.46;77.27
65989;HTU21D;53592;51.402;6.054;2023-09-19T04:16:24;15.52;76.97
65989;HTU21D;53592;51.402;6.054;2023-09-19T04:18:49;15.53;77.04
65989;HTU21D;53592;51.402;6.054;2023-09-19T04:21:15;15.54;77.15
65989;HTU21D;53592;51.402;6.054;2023-09-19T04:23:42;15.55;77.21
65989;HTU21D;53592;51.402;6.054;2023-09-19T04:26:08;15.56;77.08
65989;HTU21D;53592;51.402;6.054;2023-09-19T04:28:33;15.54;77.19
65989;HTU21D;53592;51.402;6.054;2023-09-19T04:31:00;15.58;76.80
65989;HTU21D;53592;51.402;6.054;2023-09-19T04:33:26;15.57;76.80
65989;HTU21D;53592;51.402;6.054;2023-09-19T04:35:52;15.53;77.00
65989;HTU21D;53592;51.402;6.054;2023-09-19T04:38:18;15.59;76.57
65989;HTU21D;53592;51.402;6.054;2023-09-19T04:40:48;15.59;76.67
65989;HTU21D;53592;51.402;6.054;2023-09-19T04:43:13;15.58;76.59
65989;HTU21D;53592;51.402;6.054;2023-09-19T04:45:40;15.56;76.61
65989;HTU21D;53592;51.402;6.054;2023-09-19T04:48:06;15.48;76.86
65989;HTU21D;53592;51.402;6.054;2023-09-19T04:50:32;15.47;77.13
65989;HTU21D;53592;51.402;6.054;2023-09-19T04:52:59;15.51;77.01
65989;HTU21D;53592;51.402;6.054;2023-09-19T04:55:26;15.53;76.95
65989;HTU21D;53592;51.402;6.054;2023-09-19T04:57:53;15.54;76.98
65989;HTU21D;53592;51.402;6.054;2023-09-19T05:00:23;15.56;76.95
65989;HTU21D;53592;51.402;6.054;2023-09-19T05:02:57;15.67;76.04
65989;HTU21D;53592;51.402;6.054;2023-09-19T05:05:22;15.65;76.47
65989;HTU21D;53592;51.402;6.054;2023-09-19T05:07:50;15.66;76.50
65989;HTU21D;53592;51.402;6.054;2023-09-19T05:10:16;15.70;76.30
65989;HTU21D;53592;51.402;6.054;2023-09-19T05:12:44;15.74;76.18
65989;HTU21D;53592;51.402;6.054;2023-09-19T05:15:13;15.76;76.15
65989;HTU21D;53592;51.402;6.054;2023-09-19T05:17:40;15.82;76.01
65989;HTU21D;53592;51.402;6.054;2023-09-19T05:20:06;15.84;76.10
65989;HTU21D;53592;51.402;6.054;2023-09-19T05:22:59;15.87;75.86
65989;HTU21D;53592;51.402;6.054;2023-09-19T05:25:34;15.87;76.02
65989;HTU21D;53592;51.402;6.054;2023-09-19T05:28:02;15.88;75.88
65989;HTU21D;53592;51.402;6.054;2023-09-19T05:30:29;15.90;75.76
65989;HTU21D;53592;51.402;6.054;2023-09-19T05:32:55;15.92;75.70
65989;HTU21D;53592;51.402;6.054;2023-09-19T05:35:21;15.96;75.43
65989;HTU21D;53592;51.402;6.054;2023-09-19T05:37:48;15.98;75.28
65989;HTU21D;53592;51.402;6.054;2023-09-19T05:40:17;15.99;75.16
65989;HTU21D;53592;51.402;6.054;2023-09-19T05:42:45;15.98;75.25
65989;HTU21D;53592;51.402;6.054;2023-09-19T05:45:11;15.97;75.24
65989;HTU21D;53592;51.402;6.054;2023-09-19T05:47:40;15.99;75.24
65989;HTU21D;53592;51.402;6.054;2023-09-19T05:50:11;15.99;75.05
65989;HTU21D;53592;51.402;6.054;2023-09-19T05:52:37;16.04;74.75
65989;HTU21D;53592;51.402;6.054;2023-09-19T05:55:07;16.02;74.79
65989;HTU21D;53592;51.402;6.054;2023-09-19T05:57:33;16.02;74.70
65989;HTU21D;53592;51.402;6.054;2023-09-19T05:59:59;15.99;74.97
65989;HTU21D;53592;51.402;6.054;2023-09-19T06:02:25;16.01;74.84
65989;HTU21D;53592;51.402;6.054;2023-09-19T06:07:25;15.96;75.16
65989;HTU21D;53592;51.402;6.054;2023-09-19T06:09:52;15.98;75.19
65989;HTU21D;53592;51.402;6.054;2023-09-19T06:12:19;15.98;75.26
65989;HTU21D;53592;51.402;6.054;2023-09-19T06:14:45;16.02;75.24
65989;HTU21D;53592;51.402;6.054;2023-09-19T06:17:10;15.96;75.77
65989;HTU21D;53592;51.402;6.054;2023-09-19T06:19:36;15.98;75.80
65989;HTU21D;53592;51.402;6.054;2023-09-19T06:22:01;16.00;75.90
65989;HTU21D;53592;51.402;6.054;2023-09-19T06:24:27;15.98;76.05
65989;HTU21D;53592;51.402;6.054;2023-09-19T06:26:53;15.99;76.37
65989;HTU21D;53592;51.402;6.054;2023-09-19T06:29:20;16.03;76.55
65989;HTU21D;53592;51.402;6.054;2023-09-19T06:31:46;16.06;76.52
65989;HTU21D;53592;51.402;6.054;2023-09-19T06:34:12;16.08;76.45
65989;HTU21D;53592;51.402;6.054;2023-09-19T06:36:41;16.12;76.57
65989;HTU21D;53592;51.402;6.054;2023-09-19T06:39:06;16.15;76.46
65989;HTU21D;53592;51.402;6.054;2023-09-19T06:41:32;16.14;76.59
65989;HTU21D;53592;51.402;6.054;2023-09-19T06:43:57;16.19;76.63
65989;HTU21D;53592;51.402;6.054;2023-09-19T06:46:23;16.32;75.98
65989;HTU21D;53592;51.402;6.054;2023-09-19T06:48:48;16.31;76.28
65989;HTU21D;53592;51.402;6.054;2023-09-19T06:51:14;16.32;76.44
65989;HTU21D;53592;51.402;6.054;2023-09-19T06:53:41;16.48;75.71
65989;HTU21D;53592;51.402;6.054;2023-09-19T06:56:07;16.44;76.08
65989;HTU21D;53592;51.402;6.054;2023-09-19T06:58:32;16.49;76.02
65989;HTU21D;53592;51.402;6.054;2023-09-19T07:00:58;16.55;75.44
65989;HTU21D;53592;51.402;6.054;2023-09-19T07:03:23;16.56;75.45
65989;HTU21D;53592;51.402;6.054;2023-09-19T07:05:51;16.56;75.64
65989;HTU21D;53592;51.402;6.054;2023-09-19T07:08:18;16.60;75.42
65989;HTU21D;53592;51.402;6.054;2023-09-19T07:10:45;16.63;75.54
65989;HTU21D;53592;51.402;6.054;2023-09-19T07:13:14;16.67;75.15
65989;HTU21D;53592;51.402;6.054;2023-09-19T07:15:43;16.65;75.12
65989;HTU21D;53592;51.402;6.054;2023-09-19T07:18:13;16.63;75.44
65989;HTU21D;53592;51.402;6.054;2023-09-19T07:20:40;16.69;75.03
65989;HTU21D;53592;51.402;6.054;2023-09-19T07:23:18;16.75;75.05
65989;HTU21D;53592;51.402;6.054;2023-09-19T07:25:45;16.78;74.63
65989;HTU21D;53592;51.402;6.054;2023-09-19T07:28:11;16.80;74.55
65989;HTU21D;53592;51.402;6.054;2023-09-19T07:30:37;16.86;74.56
65989;HTU21D;53592;51.402;6.054;2023-09-19T07:33:05;16.95;74.41
65989;HTU21D;53592;51.402;6.054;2023-09-19T07:35:31;17.11;74.30
65989;HTU21D;53592;51.402;6.054;2023-09-19T07:37:56;17.09;74.21
65989;HTU21D;53592;51.402;6.054;2023-09-19T07:40:24;17.21;73.70
65989;HTU21D;53592;51.402;6.054;2023-09-19T07:42:52;17.26;73.30
65989;HTU21D;53592;51.402;6.054;2023-09-19T07:45:18;17.21;73.53
65989;HTU21D;53592;51.402;6.054;2023-09-19T07:47:44;17.31;73.49
65989;HTU21D;53592;51.402;6.054;2023-09-19T07:50:10;17.38;73.37
65989;HTU21D;53592;51.402;6.054;2023-09-19T07:52:36;17.53;73.09
65989;HTU21D;53592;51.402;6.054;2023-09-19T07:55:05;17.58;72.84
65989;HTU21D;53592;51.402;6.054;2023-09-19T07:57:35;17.68;72.86
65989;HTU21D;53592;51.402;6.054;2023-09-19T08:00:01;17.82;72.22
65989;HTU21D;53592;51.402;6.054;2023-09-19T08:02:30;17.87;71.73
65989;HTU21D;53592;51.402;6.054;2023-09-19T08:04:59;17.97;71.56
65989;HTU21D;53592;51.402;6.054;2023-09-19T08:07:25;18.02;71.68
65989;HTU21D;53592;51.402;6.054;2023-09-19T08:09:51;18.12;71.77
65989;HTU21D;53592;51.402;6.054;2023-09-19T08:12:16;18.28;71.30
65989;HTU21D;53592;51.402;6.054;2023-09-19T08:14:42;18.49;70.61
65989;HTU21D;53592;51.402;6.054;2023-09-19T08:17:08;18.63;69.74
65989;HTU21D;53592;51.402;6.054;2023-09-19T08:19:34;18.63;69.61
65989;HTU21D;53592;51.402;6.054;2023-09-19T08:22:00;18.65;69.26
65989;HTU21D;53592;51.402;6.054;2023-09-19T08:24:27;18.70;68.92
65989;HTU21D;53592;51.402;6.054;2023-09-19T08:26:54;18.77;68.57
65989;HTU21D;53592;51.402;6.054;2023-09-19T08:29:21;18.72;68.16
65989;HTU21D;53592;51.402;6.054;2023-09-19T08:31:46;18.76;68.60
65989;HTU21D;53592;51.402;6.054;2023-09-19T08:34:15;18.85;68.62
65989;HTU21D;53592;51.402;6.054;2023-09-19T08:36:41;18.98;68.04
65989;HTU21D;53592;51.402;6.054;2023-09-19T08:39:08;19.03;67.86
65989;HTU21D;53592;51.402;6.054;2023-09-19T08:41:34;19.14;67.91
65989;HTU21D;53592;51.402;6.054;2023-09-19T08:44:00;19.20;66.89
65989;HTU21D;53592;51.402;6.054;2023-09-19T08:46:30;19.23;66.61
65989;HTU21D;53592;51.402;6.054;2023-09-19T08:49:03;19.27;66.80
65989;HTU21D;53592;51.402;6.054;2023-09-19T08:51:41;19.40;67.10
65989;HTU21D;53592;51.402;6.054;2023-09-19T08:54:24;19.56;66.42
65989;HTU21D;53592;51.402;6.054;2023-09-19T08:56:54;19.62;66.51
65989;HTU21D;53592;51.402;6.054;2023-09-19T08:59:22;19.74;65.48
65989;HTU21D;53592;51.402;6.054;2023-09-19T09:01:49;19.85;65.38
65989;HTU21D;53592;51.402;6.054;2023-09-19T09:04:19;19.91;64.59
65989;HTU21D;53592;51.402;6.054;2023-09-19T09:06:46;19.98;64.01
65989;HTU21D;53592;51.402;6.054;2023-09-19T09:09:15;20.04;63.69
65989;HTU21D;53592;51.402;6.054;2023-09-19T09:11:41;19.91;63.51
65989;HTU21D;53592;51.402;6.054;2023-09-19T09:14:07;19.86;63.69
65989;HTU21D;53592;51.402;6.054;2023-09-19T09:16:33;19.82;63.75
65989;HTU21D;53592;51.402;6.054;2023-09-19T09:19:00;19.74;64.00
65989;HTU21D;53592;51.402;6.054;2023-09-19T09:21:27;19.62;63.87
65989;HTU21D;53592;51.402;6.054;2023-09-19T09:23:54;19.55;64.11
65989;HTU21D;53592;51.402;6.054;2023-09-19T09:26:42;19.55;64.26
65989;HTU21D;53592;51.402;6.054;2023-09-19T09:29:12;19.68;64.42
65989;HTU21D;53592;51.402;6.054;2023-09-19T09:31:38;19.80;64.05
65989;HTU21D;53592;51.402;6.054;2023-09-19T09:34:07;19.99;63.82
65989;HTU21D;53592;51.402;6.054;2023-09-19T09:36:37;20.05;63.77
65989;HTU21D;53592;51.402;6.054;2023-09-19T09:39:04;20.25;63.17
65989;HTU21D;53592;51.402;6.054;2023-09-19T09:41:42;20.34;62.92
65989;HTU21D;53592;51.402;6.054;2023-09-19T09:44:16;20.53;62.48
65989;HTU21D;53592;51.402;6.054;2023-09-19T09:46:47;20.71;61.44
65989;HTU21D;53592;51.402;6.054;2023-09-19T09:49:27;20.84;61.70
65989;HTU21D;53592;51.402;6.054;2023-09-19T09:52:06;20.93;61.15
65989;HTU21D;53592;51.402;6.054;2023-09-19T09:54:34;21.17;61.48
65989;HTU21D;53592;51.402;6.054;2023-09-19T09:57:06;21.39;59.55
65989;HTU21D;53592;51.402;6.054;2023-09-19T10:02:16;21.64;59.43
65989;HTU21D;53592;51.402;6.054;2023-09-19T10:04:51;21.65;59.01
65989;HTU21D;53592;51.402;6.054;2023-09-19T10:07:29;21.64;57.96
65989;HTU21D;53592;51.402;6.054;2023-09-19T10:10:04;21.60;58.31
65989;HTU21D;53592;51.402;6.054;2023-09-19T10:12:43;21.63;58.00
65989;HTU21D;53592;51.402;6.054;2023-09-19T10:15:11;21.55;58.21
65989;HTU21D;53592;51.402;6.054;2023-09-19T10:17:42;21.63;57.61
65989;HTU21D;53592;51.402;6.054;2023-09-19T10:20:10;21.52;58.72
65989;HTU21D;53592;51.402;6.054;2023-09-19T10:22:48;21.68;58.26
65989;HTU21D;53592;51.402;6.054;2023-09-19T10:25:25;21.66;58.68
65989;HTU21D;53592;51.402;6.054;2023-09-19T10:27:54;21.69;57.37
65989;HTU21D;53592;51.402;6.054;2023-09-19T10:30:23;21.57;57.77
65989;HTU21D;53592;51.402;6.054;2023-09-19T10:32:59;21.40;57.45
65989;HTU21D;53592;51.402;6.054;2023-09-19T10:35:26;21.38;57.93
65989;HTU21D;53592;51.402;6.054;2023-09-19T10:37:54;21.34;58.87
65989;HTU21D;53592;51.402;6.054;2023-09-19T10:40:22;21.42;59.55
65989;HTU21D;53592;51.402;6.054;2023-09-19T10:43:03;21.60;59.67
65989;HTU21D;53592;51.402;6.054;2023-09-19T10:45:32;21.75;59.09
65989;HTU21D;53592;51.402;6.054;2023-09-19T10:47:59;21.69;58.72
65989;HTU21D;53592;51.402;6.054;2023-09-19T10:50:31;21.70;58.19
65989;HTU21D;53592;51.402;6.054;2023-09-19T10:53:02;21.66;58.72
65989;HTU21D;53592;51.402;6.054;2023-09-19T10:55:32;21.65;58.66
65989;HTU21D;53592;51.402;6.054;2023-09-19T10:57:59;21.62;57.90
65989;HTU21D;53592;51.402;6.054;2023-09-19T11:00:26;21.68;59.13
65989;HTU21D;53592;51.402;6.054;2023-09-19T11:06:04;21.98;57.90
65989;HTU21D;53592;51.402;6.054;2023-09-19T11:08:50;22.06;56.72
65989;HTU21D;53592;51.402;6.054;2023-09-19T11:14:29;22.16;55.72
65989;HTU21D;53592;51.402;6.054;2023-09-19T11:30:42;22.20;54.71
65989;HTU21D;53592;51.402;6.054;2023-09-19T11:33:23;22.12;55.42
65989;HTU21D;53592;51.402;6.054;2023-09-19T11:44:31;21.99;55.13
65989;HTU21D;53592;51.402;6.054;2023-09-19T11:46:54;21.88;55.74
65989;HTU21D;53592;51.402;6.054;2023-09-19T11:49:28;21.92;55.65
65989;HTU21D;53592;51.402;6.054;2023-09-19T11:51:56;22.03;55.84
65989;HTU21D;53592;51.402;6.054;2023-09-19T11:54:23;22.10;55.99
65989;HTU21D;53592;51.402;6.054;2023-09-19T11:56:52;22.22;54.75
65989;HTU21D;53592;51.402;6.054;2023-09-19T11:59:25;22.33;53.00
65989;HTU21D;53592;51.402;6.054;2023-09-19T12:01:58;22.28;54.30
65989;HTU21D;53592;51.402;6.054;2023-09-19T12:04:41;22.28;53.47
65989;HTU21D;53592;51.402;6.054;2023-09-19T12:07:10;22.24;52.77
65989;HTU21D;53592;51.402;6.054;2023-09-19T12:09:39;22.27;54.22
65989;HTU21D;53592;51.402;6.054;2023-09-19T12:12:07;22.19;54.24
65989;HTU21D;53592;51.402;6.054;2023-09-19T12:14:34;22.23;53.52
65989;HTU21D;53592;51.402;6.054;2023-09-19T12:17:00;22.17;54.98
65989;HTU21D;53592;51.402;6.054;2023-09-19T12:19:28;22.27;52.77
65989;HTU21D;53592;51.402;6.054;2023-09-19T12:22:02;22.35;53.32
65989;HTU21D;53592;51.402;6.054;2023-09-19T12:24:30;22.42;53.52
65989;HTU21D;53592;51.402;6.054;2023-09-19T12:27:01;22.43;54.42
65989;HTU21D;53592;51.402;6.054;2023-09-19T12:29:30;22.54;53.05
65989;HTU21D;53592;51.402;6.054;2023-09-19T12:31:59;22.38;52.55
65989;HTU21D;53592;51.402;6.054;2023-09-19T12:34:33;22.21;51.85
65989;HTU21D;53592;51.402;6.054;2023-09-19T12:37:12;21.92;53.20
65989;HTU21D;53592;51.402;6.054;2023-09-19T12:39:39;21.70;54.85
65989;HTU21D;53592;51.402;6.054;2023-09-19T12:42:10;21.66;54.75
65989;HTU21D;53592;51.402;6.054;2023-09-19T12:44:37;21.63;55.39
65989;HTU21D;53592;51.402;6.054;2023-09-19T12:47:17;21.65;56.45
65989;HTU21D;53592;51.402;6.054;2023-09-19T12:52:43;21.64;55.82
65989;HTU21D;53592;51.402;6.054;2023-09-19T12:55:27;21.55;55.46
65989;HTU21D;53592;51.402;6.054;2023-09-19T13:00:39;21.47;55.88
65989;HTU21D;53592;51.402;6.054;2023-09-19T13:03:38;21.46;56.04
65989;HTU21D;53592;51.402;6.054;2023-09-19T13:06:04;21.43;56.64
65989;HTU21D;53592;51.402;6.054;2023-09-19T13:08:32;21.44;56.98
65989;HTU21D;53592;51.402;6.054;2023-09-19T13:13:26;21.48;56.28
65989;HTU21D;53592;51.402;6.054;2023-09-19T13:15:54;21.39;56.25
65989;HTU21D;53592;51.402;6.054;2023-09-19T13:18:22;21.45;57.14
65989;HTU21D;53592;51.402;6.054;2023-09-19T13:21:08;21.45;57.15
65989;HTU21D;53592;51.402;6.054;2023-09-19T13:23:38;21.55;57.00
65989;HTU21D;53592;51.402;6.054;2023-09-19T13:26:03;21.55;57.10
65989;HTU21D;53592;51.402;6.054;2023-09-19T13:28:33;21.60;56.88
65989;HTU21D;53592;51.402;6.054;2023-09-19T13:30:58;21.62;56.84
65989;HTU21D;53592;51.402;6.054;2023-09-19T13:33:24;21.75;57.93
65989;HTU21D;53592;51.402;6.054;2023-09-19T13:35:51;21.89;56.42
65989;HTU21D;53592;51.402;6.054;2023-09-19T13:38:18;21.90;55.65
65989;HTU21D;53592;51.402;6.054;2023-09-19T13:40:47;21.79;55.99
65989;HTU21D;53592;51.402;6.054;2023-09-19T13:43:13;21.79;56.00
65989;HTU21D;53592;51.402;6.054;2023-09-19T13:45:39;21.83;56.29
65989;HTU21D;53592;51.402;6.054;2023-09-19T13:48:07;21.80;55.98
65989;HTU21D;53592;51.402;6.054;2023-09-19T13:50:34;21.74;56.10
65989;HTU21D;53592;51.402;6.054;2023-09-19T13:53:01;21.80;55.62
65989;HTU21D;53592;51.402;6.054;2023-09-19T13:55:27;21.72;55.74
65989;HTU21D;53592;51.402;6.054;2023-09-19T13:57:53;21.67;56.12
65989;HTU21D;53592;51.402;6.054;2023-09-19T14:00:21;21.59;56.27
65989;HTU21D;53592;51.402;6.054;2023-09-19T14:02:48;21.52;56.74
65989;HTU21D;53592;51.402;6.054;2023-09-19T14:05:15;21.48;56.39
65989;HTU21D;53592;51.402;6.054;2023-09-19T14:07:45;21.46;57.39
65989;HTU21D;53592;51.402;6.054;2023-09-19T14:10:13;21.37;57.22
65989;HTU21D;53592;51.402;6.054;2023-09-19T14:12:40;21.35;57.56
65989;HTU21D;53592;51.402;6.054;2023-09-19T14:15:10;21.25;56.52
65989;HTU21D;53592;51.402;6.054;2023-09-19T14:17:37;21.11;56.83
65989;HTU21D;53592;51.402;6.054;2023-09-19T14:20:02;21.04;57.75
65989;HTU21D;53592;51.402;6.054;2023-09-19T14:22:28;20.96;58.42
65989;HTU21D;53592;51.402;6.054;2023-09-19T14:24:54;20.93;58.48
65989;HTU21D;53592;51.402;6.054;2023-09-19T14:27:20;20.92;58.09
65989;HTU21D;53592;51.402;6.054;2023-09-19T14:29:45;20.80;58.83
65989;HTU21D;53592;51.402;6.054;2023-09-19T14:32:11;20.91;58.68
65989;HTU21D;53592;51.402;6.054;2023-09-19T14:34:36;20.73;58.70
65989;HTU21D;53592;51.402;6.054;2023-09-19T14:37:07;20.65;59.06
65989;HTU21D;53592;51.402;6.054;2023-09-19T14:39:33;20.59;59.06
65989;HTU21D;53592;51.402;6.054;2023-09-19T14:41:58;20.56;59.08
65989;HTU21D;53592;51.402;6.054;2023-09-19T14:44:24;20.56;59.75
65989;HTU21D;53592;51.402;6.054;2023-09-19T14:46:50;20.56;59.64
65989;HTU21D;53592;51.402;6.054;2023-09-19T14:49:15;20.58;59.14
65989;HTU21D;53592;51.402;6.054;2023-09-19T14:51:42;20.53;59.61
65989;HTU21D;53592;51.402;6.054;2023-09-19T14:54:12;20.57;59.61
65989;HTU21D;53592;51.402;6.054;2023-09-19T14:56:38;20.61;59.34
65989;HTU21D;53592;51.402;6.054;2023-09-19T14:59:04;20.62;59.50
65989;HTU21D;53592;51.402;6.054;2023-09-19T15:01:29;20.72;60.04
65989;HTU21D;53592;51.402;6.054;2023-09-19T15:03:55;20.80;60.30
65989;HTU21D;53592;51.402;6.054;2023-09-19T15:06:21;20.93;59.58
65989;HTU21D;53592;51.402;6.054;2023-09-19T15:08:47;20.98;59.01
65989;HTU21D;53592;51.402;6.054;2023-09-19T15:11:14;20.99;59.56
65989;HTU21D;53592;51.402;6.054;2023-09-19T15:13:43;20.99;58.45
65989;HTU21D;53592;51.402;6.054;2023-09-19T15:16:09;20.89;58.48
65989;HTU21D;53592;51.402;6.054;2023-09-19T15:18:36;20.88;58.67
65989;HTU21D;53592;51.402;6.054;2023-09-19T15:21:05;20.78;59.23
65989;HTU21D;53592;51.402;6.054;2023-09-19T15:23:31;20.75;59.65
65989;HTU21D;53592;51.402;6.054;2023-09-19T15:26:00;20.69;59.89
65989;HTU21D;53592;51.402;6.054;2023-09-19T15:28:27;20.62;60.31
65989;HTU21D;53592;51.402;6.054;2023-09-19T15:31:06;20.60;60.42
65989;HTU21D;53592;51.402;6.054;2023-09-19T15:33:32;20.56;60.22
65989;HTU21D;53592;51.402;6.054;2023-09-19T15:38:29;20.54;60.58
65989;HTU21D;53592;51.402;6.054;2023-09-19T15:40:55;20.58;60.71
65989;HTU21D;53592;51.402;6.054;2023-09-19T15:43:20;20.54;60.67
65989;HTU21D;53592;51.402;6.054;2023-09-19T15:45:47;20.61;60.99
65989;HTU21D;53592;51.402;6.054;2023-09-19T15:48:14;20.65;61.17
65989;HTU21D;53592;51.402;6.054;2023-09-19T15:50:39;20.72;60.37
65989;HTU21D;53592;51.402;6.054;2023-09-19T15:53:07;20.74;60.23
65989;HTU21D;53592;51.402;6.054;2023-09-19T15:55:39;20.77;60.38
65989;HTU21D;53592;51.402;6.054;2023-09-19T15:58:05;20.79;60.28
65989;HTU21D;53592;51.402;6.054;2023-09-19T16:00:34;20.76;60.55
65989;HTU21D;53592;51.402;6.054;2023-09-19T16:03:00;20.79;60.64
65989;HTU21D;53592;51.402;6.054;2023-09-19T16:05:26;20.78;60.67
65989;HTU21D;53592;51.402;6.054;2023-09-19T16:07:52;20.72;60.48
65989;HTU21D;53592;51.402;6.054;2023-09-19T16:10:18;20.69;60.37
65989;HTU21D;53592;51.402;6.054;2023-09-19T16:12:43;20.59;60.79
65989;HTU21D;53592;51.402;6.054;2023-09-19T16:15:09;20.62;59.54
65989;HTU21D;53592;51.402;6.054;2023-09-19T16:17:39;20.55;59.55
65989;HTU21D;53592;51.402;6.054;2023-09-19T16:20:05;20.44;60.31
65989;HTU21D;53592;51.402;6.054;2023-09-19T16:22:38;20.33;60.58
65989;HTU21D;53592;51.402;6.054;2023-09-19T16:25:05;20.34;60.88